Terminal Aerodrome Forecast
Issued by NWS Bismarck, ND

Home | Current Version | Previous Version | Graphics & Text | Print | Product List | Glossary On
Versions: 1 2 3 4 5 6 7 8 9 10 11 12 13 14 15 16 17 18 19
000
FTUS43 KBIS 262339
TAFBIS
TAF
KBIS 262339Z 2700/2724 33007KT P6SM VCSH SCT110
     FM270200 28004KT P6SM SCT100
     FM271600 18008KT P6SM SCT250
     FM271800 15009KT P6SM SCT050 BKN200=

USA.gov is the U.S. government's official web portal to all federal, state and local government web resources and services.